Tin City LRRS, AK

7:32 AM AKDT on August 28, 2014 (GMT -0800)
Deering (New) | Change Station
CLOSE
Current Station
Airport
Location: Deering,
Elevation: 16 ft
Nearby Weather Stations

Elev 16 ft 66.07 °N, 162.77 °W | Updated 39 minutes ago

Overcast
Overcast
47 °F
Feels Like 47 °F
N
17
Wind Variable Wind from West

Today
High -- | Low -- °F
--% Chance of Precip.
Yesterday
High -- | Low -- °F
Precip. -- in
7:36 AM 10:46 PM
Waxing Crescent, 8% visible
Pressure 29.60 in
Visibility 10.0 miles
Clouds Mostly Cloudy 1900 ft
Overcast 2300 ft
Dew Point 41 °F
Humidity 80%
Rainfall 0.08 in
Snow Depth Not available.
UV 0 out of 12
Pollen Not available.
Air Quality Not available.
Flu Activity Not available.
METAR PADE 281453Z AUTO 28015KT 10SM BKN019 OVC023 08/05 A2960 RMK SLP024 60000 T00830050 50001 TSNO $ VIA AUTODIAL

More Conditions Fewer Conditions

Pressure 29.60 in
Visibility 10.0 miles
Clouds Mostly Cloudy 1900 ft
Overcast 2300 ft
Dew Point 41 °F
Humidity 80%
Rainfall 0.08 in
Snow Depth Not available.
UV 0 out of 12
Pollen Not available.
Air Quality Not available.
Flu Activity Not available.
METAR PADE 281453Z AUTO 28015KT 10SM BKN019 OVC023 08/05 A2960 RMK SLP024 60000 T00830050 50001 TSNO $ VIA AUTODIAL

More Conditions Fewer Conditions

10-Day Weather Forecast

Almanac

Astronomy

Aug. 28, 2014 Rise Set
Actual Time 7:36 AM AKDT 10:46 PM AKDT
Civil Twilight 6:37 AM AKDT 11:45 PM AKDT
Nautical Twilight 5:05 AM AKDT 1:14 AM AKDT
Astronomical Twilight Sun does not rise Sun does not rise
Moon 12:10 PM AKDT 10:41 PM AKDT
Length of Visible Light 17h 08m
Length of Day
15h 09m
Tomorrow will be 7m 2s shorter.
Waxing Crescent, 8% of the Moon is Illuminated
Today
Waxing Crescent
Sep 2
First Quarter
Sep 8
Full
Sep 15
Last Quarter
Sep 24
New

Today's Extremes

State Highs State Lows

Community

WunderPhotos

Upload Photos

1,747,986 photos uploaded!

Nearby

Snow Depth

Station Depth Elevation
Rocky Point 4 in 500 ft
Coldfoot 1 in 1040 ft
Susitna Valley High 109 in 375 ft
Point Mackenzie 1 in 200 ft
Munson Ridge 1 in 3100 ft

Earthquake Activity

City Distance Mag. Time & Date
No recent earthquake activity has been reported nearby.
Minimum magnitude displayed is 2.5.

Coastal Water Temperatures

Place Temperature
No Stations Reporting

Nearby Weather Stations